sensor_id;sensor_type;location;lat;lon;timestamp;temperature;humidity
27567;DHT22;15006;48.584;9.186;2023-02-15T00:02:03;-3.70;79.40
27567;DHT22;15006;48.584;9.186;2023-02-15T00:04:31;-3.80;79.20
27567;DHT22;15006;48.584;9.186;2023-02-15T00:07:18;-3.80;79.60
27567;DHT22;15006;48.584;9.186;2023-02-15T00:09:46;-3.80;80.10
27567;DHT22;15006;48.584;9.186;2023-02-15T00:12:13;-3.90;79.50
27567;DHT22;15006;48.584;9.186;2023-02-15T00:14:41;-3.90;79.60
27567;DHT22;15006;48.584;9.186;2023-02-15T00:17:09;-3.90;79.80
27567;DHT22;15006;48.584;9.186;2023-02-15T00:19:36;-3.90;80.00
27567;DHT22;15006;48.584;9.186;2023-02-15T00:22:04;-4.00;80.10
27567;DHT22;15006;48.584;9.186;2023-02-15T00:24:32;-4.00;80.10
27567;DHT22;15006;48.584;9.186;2023-02-15T00:27:04;-4.00;80.10
27567;DHT22;15006;48.584;9.186;2023-02-15T00:29:32;-4.10;80.40
27567;DHT22;15006;48.584;9.186;2023-02-15T00:32:01;-4.10;80.80
27567;DHT22;15006;48.584;9.186;2023-02-15T00:34:29;-4.10;81.00
27567;DHT22;15006;48.584;9.186;2023-02-15T00:36:57;-4.10;81.30
27567;DHT22;15006;48.584;9.186;2023-02-15T00:39:25;-4.10;82.10
27567;DHT22;15006;48.584;9.186;2023-02-15T00:41:54;-4.10;82.20
27567;DHT22;15006;48.584;9.186;2023-02-15T00:44:21;-4.10;82.10
27567;DHT22;15006;48.584;9.186;2023-02-15T00:46:47;-4.10;82.00
27567;DHT22;15006;48.584;9.186;2023-02-15T00:49:13;-4.20;82.90
27567;DHT22;15006;48.584;9.186;2023-02-15T00:51:39;-4.20;82.10
27567;DHT22;15006;48.584;9.186;2023-02-15T00:54:05;-4.20;82.20
27567;DHT22;15006;48.584;9.186;2023-02-15T00:56:32;-4.20;82.40
27567;DHT22;15006;48.584;9.186;2023-02-15T00:58:58;-4.20;82.20
27567;DHT22;15006;48.584;9.186;2023-02-15T01:01:25;-4.20;82.00
27567;DHT22;15006;48.584;9.186;2023-02-15T01:03:53;-4.20;82.00
27567;DHT22;15006;48.584;9.186;2023-02-15T01:06:28;-4.20;82.30
27567;DHT22;15006;48.584;9.186;2023-02-15T01:08:56;-4.20;82.50
27567;DHT22;15006;48.584;9.186;2023-02-15T01:11:23;-4.20;82.60
27567;DHT22;15006;48.584;9.186;2023-02-15T01:13:54;-4.20;82.60
27567;DHT22;15006;48.584;9.186;2023-02-15T01:16:22;-4.20;82.80
27567;DHT22;15006;48.584;9.186;2023-02-15T01:18:48;-4.30;82.60
27567;DHT22;15006;48.584;9.186;2023-02-15T01:21:17;-4.30;82.30
27567;DHT22;15006;48.584;9.186;2023-02-15T01:23:45;-4.30;82.30
27567;DHT22;15006;48.584;9.186;2023-02-15T01:26:11;-4.30;82.20
27567;DHT22;15006;48.584;9.186;2023-02-15T01:28:38;-4.30;82.00
27567;DHT22;15006;48.584;9.186;2023-02-15T01:31:13;-4.30;82.20
27567;DHT22;15006;48.584;9.186;2023-02-15T01:33:42;-4.40;83.10
27567;DHT22;15006;48.584;9.186;2023-02-15T01:36:08;-4.30;82.30
27567;DHT22;15006;48.584;9.186;2023-02-15T01:38:35;-4.40;82.10
27567;DHT22;15006;48.584;9.186;2023-02-15T01:41:01;-4.40;82.10
27567;DHT22;15006;48.584;9.186;2023-02-15T01:43:48;-4.40;81.80
27567;DHT22;15006;48.584;9.186;2023-02-15T01:46:20;-4.40;81.80
27567;DHT22;15006;48.584;9.186;2023-02-15T01:49:01;-4.50;81.80
27567;DHT22;15006;48.584;9.186;2023-02-15T01:51:31;-4.50;82.60
27567;DHT22;15006;48.584;9.186;2023-02-15T01:54:29;-4.50;82.30
27567;DHT22;15006;48.584;9.186;2023-02-15T01:57:03;-4.50;84.50
27567;DHT22;15006;48.584;9.186;2023-02-15T01:59:32;-4.50;83.10
27567;DHT22;15006;48.584;9.186;2023-02-15T02:01:59;-4.50;82.40
27567;DHT22;15006;48.584;9.186;2023-02-15T02:04:35;-4.50;82.30
27567;DHT22;15006;48.584;9.186;2023-02-15T02:07:07;-4.60;82.70
27567;DHT22;15006;48.584;9.186;2023-02-15T02:09:36;-4.60;82.10
27567;DHT22;15006;48.584;9.186;2023-02-15T02:12:02;-4.60;81.90
27567;DHT22;15006;48.584;9.186;2023-02-15T02:14:29;-4.60;81.70
27567;DHT22;15006;48.584;9.186;2023-02-15T02:23:24;-4.70;84.00
27567;DHT22;15006;48.584;9.186;2023-02-15T02:34:51;-4.80;84.10
27567;DHT22;15006;48.584;9.186;2023-02-15T02:37:40;-4.80;84.00
27567;DHT22;15006;48.584;9.186;2023-02-15T02:46:38;-4.80;83.20
27567;DHT22;15006;48.584;9.186;2023-02-15T02:49:27;-4.90;84.00
27567;DHT22;15006;48.584;9.186;2023-02-15T02:52:02;-4.90;82.30
27567;DHT22;15006;48.584;9.186;2023-02-15T02:54:31;-4.90;83.20
27567;DHT22;15006;48.584;9.186;2023-02-15T02:57:00;-4.90;82.90
27567;DHT22;15006;48.584;9.186;2023-02-15T02:59:35;-5.00;83.20
27567;DHT22;15006;48.584;9.186;2023-02-15T03:02:26;-5.00;83.70
27567;DHT22;15006;48.584;9.186;2023-02-15T03:05:00;-5.00;83.70
27567;DHT22;15006;48.584;9.186;2023-02-15T03:07:31;-5.00;83.80
27567;DHT22;15006;48.584;9.186;2023-02-15T03:09:58;-5.00;83.60
27567;DHT22;15006;48.584;9.186;2023-02-15T03:12:30;-5.00;83.60
27567;DHT22;15006;48.584;9.186;2023-02-15T03:15:06;-5.00;83.70
27567;DHT22;15006;48.584;9.186;2023-02-15T03:17:42;-5.10;83.70
27567;DHT22;15006;48.584;9.186;2023-02-15T03:20:31;-5.10;83.80
27567;DHT22;15006;48.584;9.186;2023-02-15T03:23:02;-5.10;84.90
27567;DHT22;15006;48.584;9.186;2023-02-15T03:25:33;-5.10;83.60
27567;DHT22;15006;48.584;9.186;2023-02-15T03:28:05;-5.10;83.90
27567;DHT22;15006;48.584;9.186;2023-02-15T03:30:35;-5.10;84.00
27567;DHT22;15006;48.584;9.186;2023-02-15T03:33:02;-5.10;83.70
27567;DHT22;15006;48.584;9.186;2023-02-15T03:35:42;-5.10;83.40
27567;DHT22;15006;48.584;9.186;2023-02-15T03:38:11;-5.10;84.30
27567;DHT22;15006;48.584;9.186;2023-02-15T03:40:42;-5.10;83.50
27567;DHT22;15006;48.584;9.186;2023-02-15T03:49:12;-5.20;84.20
27567;DHT22;15006;48.584;9.186;2023-02-15T03:51:43;-5.20;84.20
27567;DHT22;15006;48.584;9.186;2023-02-15T03:57:06;-5.20;83.90
27567;DHT22;15006;48.584;9.186;2023-02-15T03:59:52;-5.30;83.20
27567;DHT22;15006;48.584;9.186;2023-02-15T04:02:51;-5.30;83.10
27567;DHT22;15006;48.584;9.186;2023-02-15T04:05:19;-5.40;84.60
27567;DHT22;15006;48.584;9.186;2023-02-15T04:07:45;-5.40;83.90
27567;DHT22;15006;48.584;9.186;2023-02-15T04:10:11;-5.40;83.90
27567;DHT22;15006;48.584;9.186;2023-02-15T04:12:56;-5.40;84.00
27567;DHT22;15006;48.584;9.186;2023-02-15T04:15:22;-5.40;83.90
27567;DHT22;15006;48.584;9.186;2023-02-15T04:18:07;-5.40;84.10
27567;DHT22;15006;48.584;9.186;2023-02-15T04:20:34;-5.40;84.50
27567;DHT22;15006;48.584;9.186;2023-02-15T04:23:19;-5.40;84.70
27567;DHT22;15006;48.584;9.186;2023-02-15T04:26:04;-5.40;84.70
27567;DHT22;15006;48.584;9.186;2023-02-15T04:28:30;-5.40;84.70
27567;DHT22;15006;48.584;9.186;2023-02-15T04:30:57;-5.40;84.70
27567;DHT22;15006;48.584;9.186;2023-02-15T04:33:23;-5.50;84.60
27567;DHT22;15006;48.584;9.186;2023-02-15T04:35:49;-5.50;84.70
27567;DHT22;15006;48.584;9.186;2023-02-15T04:38:15;-5.50;84.80
27567;DHT22;15006;48.584;9.186;2023-02-15T04:40:41;-5.40;84.80
27567;DHT22;15006;48.584;9.186;2023-02-15T04:43:07;-5.40;84.70
27567;DHT22;15006;48.584;9.186;2023-02-15T04:45:33;-5.50;84.70
27567;DHT22;15006;48.584;9.186;2023-02-15T04:47:59;-5.50;84.90
27567;DHT22;15006;48.584;9.186;2023-02-15T04:50:25;-5.50;84.80
27567;DHT22;15006;48.584;9.186;2023-02-15T04:52:51;-5.50;84.80
27567;DHT22;15006;48.584;9.186;2023-02-15T04:55:17;-5.50;85.00
27567;DHT22;15006;48.584;9.186;2023-02-15T04:57:43;-5.50;84.70
27567;DHT22;15006;48.584;9.186;2023-02-15T05:00:09;-5.50;84.90
27567;DHT22;15006;48.584;9.186;2023-02-15T05:02:36;-5.50;85.00
27567;DHT22;15006;48.584;9.186;2023-02-15T05:05:02;-5.50;84.90
27567;DHT22;15006;48.584;9.186;2023-02-15T05:07:28;-5.60;84.90
27567;DHT22;15006;48.584;9.186;2023-02-15T05:09:54;-5.60;85.40
27567;DHT22;15006;48.584;9.186;2023-02-15T05:12:20;-5.60;85.20
27567;DHT22;15006;48.584;9.186;2023-02-15T05:14:46;-5.50;85.10
27567;DHT22;15006;48.584;9.186;2023-02-15T05:17:12;-5.60;85.10
27567;DHT22;15006;48.584;9.186;2023-02-15T05:19:38;-5.60;85.30
27567;DHT22;15006;48.584;9.186;2023-02-15T05:22:04;-5.60;85.30
27567;DHT22;15006;48.584;9.186;2023-02-15T05:24:30;-5.60;85.40
27567;DHT22;15006;48.584;9.186;2023-02-15T05:27:14;-5.70;85.30
27567;DHT22;15006;48.584;9.186;2023-02-15T05:29:59;-5.70;85.40
27567;DHT22;15006;48.584;9.186;2023-02-15T05:32:25;-5.70;85.20
27567;DHT22;15006;48.584;9.186;2023-02-15T05:34:51;-5.70;85.20
27567;DHT22;15006;48.584;9.186;2023-02-15T05:37:17;-5.70;85.10
27567;DHT22;15006;48.584;9.186;2023-02-15T05:39:43;-5.70;85.10
27567;DHT22;15006;48.584;9.186;2023-02-15T05:42:10;-5.70;85.00
27567;DHT22;15006;48.584;9.186;2023-02-15T05:44:36;-5.70;84.90
27567;DHT22;15006;48.584;9.186;2023-02-15T05:47:02;-5.70;84.80
27567;DHT22;15006;48.584;9.186;2023-02-15T05:49:28;-5.80;84.60
27567;DHT22;15006;48.584;9.186;2023-02-15T05:51:56;-5.80;84.80
27567;DHT22;15006;48.584;9.186;2023-02-15T05:54:22;-5.80;84.60
27567;DHT22;15006;48.584;9.186;2023-02-15T05:56:48;-5.80;84.70
27567;DHT22;15006;48.584;9.186;2023-02-15T05:59:13;-5.80;85.10
27567;DHT22;15006;48.584;9.186;2023-02-15T06:01:40;-5.90;85.30
27567;DHT22;15006;48.584;9.186;2023-02-15T06:04:07;-5.90;85.40
27567;DHT22;15006;48.584;9.186;2023-02-15T06:06:33;-5.90;85.40
27567;DHT22;15006;48.584;9.186;2023-02-15T06:09:00;-5.90;85.20
27567;DHT22;15006;48.584;9.186;2023-02-15T06:11:26;-5.90;85.20
27567;DHT22;15006;48.584;9.186;2023-02-15T06:13:52;-5.90;85.30
27567;DHT22;15006;48.584;9.186;2023-02-15T06:16:18;-5.90;85.40
27567;DHT22;15006;48.584;9.186;2023-02-15T06:18:44;-5.90;85.10
27567;DHT22;15006;48.584;9.186;2023-02-15T06:21:10;-5.90;85.00
27567;DHT22;15006;48.584;9.186;2023-02-15T06:23:36;-6.00;84.90
27567;DHT22;15006;48.584;9.186;2023-02-15T06:26:02;-6.00;85.00
27567;DHT22;15006;48.584;9.186;2023-02-15T06:28:28;-6.00;85.20
27567;DHT22;15006;48.584;9.186;2023-02-15T06:30:54;-6.00;85.30
27567;DHT22;15006;48.584;9.186;2023-02-15T06:33:20;-6.00;85.60
27567;DHT22;15006;48.584;9.186;2023-02-15T06:35:46;-6.00;86.10
27567;DHT22;15006;48.584;9.186;2023-02-15T06:38:12;-6.00;86.50
27567;DHT22;15006;48.584;9.186;2023-02-15T06:40:38;-6.00;86.80
27567;DHT22;15006;48.584;9.186;2023-02-15T06:43:04;-6.00;87.30
27567;DHT22;15006;48.584;9.186;2023-02-15T06:45:30;-6.00;87.60
27567;DHT22;15006;48.584;9.186;2023-02-15T06:47:56;-6.00;87.60
27567;DHT22;15006;48.584;9.186;2023-02-15T06:50:22;-6.00;87.40
27567;DHT22;15006;48.584;9.186;2023-02-15T06:52:48;-5.90;87.50
27567;DHT22;15006;48.584;9.186;2023-02-15T06:55:14;-5.90;87.40
27567;DHT22;15006;48.584;9.186;2023-02-15T06:57:40;-5.90;87.60
27567;DHT22;15006;48.584;9.186;2023-02-15T07:00:06;-5.80;87.90
27567;DHT22;15006;48.584;9.186;2023-02-15T07:02:33;-5.70;88.30
27567;DHT22;15006;48.584;9.186;2023-02-15T07:04:59;-5.60;88.60
27567;DHT22;15006;48.584;9.186;2023-02-15T07:07:25;-5.50;88.60
27567;DHT22;15006;48.584;9.186;2023-02-15T07:09:51;-5.30;88.70
27567;DHT22;15006;48.584;9.186;2023-02-15T07:12:17;-5.20;88.80
27567;DHT22;15006;48.584;9.186;2023-02-15T07:15:01;-5.10;89.30
27567;DHT22;15006;48.584;9.186;2023-02-15T07:17:29;-5.00;89.60
27567;DHT22;15006;48.584;9.186;2023-02-15T07:19:57;-4.90;90.00
27567;DHT22;15006;48.584;9.186;2023-02-15T07:22:23;-4.80;90.20
27567;DHT22;15006;48.584;9.186;2023-02-15T07:24:49;-4.70;90.30
27567;DHT22;15006;48.584;9.186;2023-02-15T07:27:15;-4.60;90.30
27567;DHT22;15006;48.584;9.186;2023-02-15T07:29:41;-4.50;90.30
27567;DHT22;15006;48.584;9.186;2023-02-15T07:32:07;-4.40;90.30
27567;DHT22;15006;48.584;9.186;2023-02-15T07:34:33;-4.30;90.40
27567;DHT22;15006;48.584;9.186;2023-02-15T07:36:59;-4.20;90.40
27567;DHT22;15006;48.584;9.186;2023-02-15T07:39:25;-4.20;90.30
27567;DHT22;15006;48.584;9.186;2023-02-15T07:41:51;-4.00;90.30
27567;DHT22;15006;48.584;9.186;2023-02-15T07:44:17;-4.00;90.30
27567;DHT22;15006;48.584;9.186;2023-02-15T07:46:43;-3.90;90.50
27567;DHT22;15006;48.584;9.186;2023-02-15T07:49:09;-3.80;90.80
27567;DHT22;15006;48.584;9.186;2023-02-15T07:51:35;-3.70;91.00
27567;DHT22;15006;48.584;9.186;2023-02-15T07:54:01;-3.60;91.10
27567;DHT22;15006;48.584;9.186;2023-02-15T07:56:27;-3.50;91.40
27567;DHT22;15006;48.584;9.186;2023-02-15T07:58:53;-3.40;91.50
27567;DHT22;15006;48.584;9.186;2023-02-15T08:01:26;-3.30;91.50
27567;DHT22;15006;48.584;9.186;2023-02-15T08:03:55;-3.20;91.70
27567;DHT22;15006;48.584;9.186;2023-02-15T08:06:23;-3.10;91.50
27567;DHT22;15006;48.584;9.186;2023-02-15T08:08:51;-3.00;92.00
27567;DHT22;15006;48.584;9.186;2023-02-15T08:14:07;-2.80;91.70
27567;DHT22;15006;48.584;9.186;2023-02-15T08:16:49;-2.70;92.40
27567;DHT22;15006;48.584;9.186;2023-02-15T08:19:28;-2.60;92.40
27567;DHT22;15006;48.584;9.186;2023-02-15T08:21:57;-2.50;91.90
27567;DHT22;15006;48.584;9.186;2023-02-15T08:24:30;-2.40;91.90
27567;DHT22;15006;48.584;9.186;2023-02-15T08:26:58;-2.40;92.00
27567;DHT22;15006;48.584;9.186;2023-02-15T08:29:26;-2.30;92.00
27567;DHT22;15006;48.584;9.186;2023-02-15T08:31:55;-2.20;92.40
27567;DHT22;15006;48.584;9.186;2023-02-15T08:34:24;-2.10;92.30
27567;DHT22;15006;48.584;9.186;2023-02-15T08:36:50;-2.00;93.30
27567;DHT22;15006;48.584;9.186;2023-02-15T08:39:16;-1.90;91.80
27567;DHT22;15006;48.584;9.186;2023-02-15T08:41:44;-1.80;92.00
27567;DHT22;15006;48.584;9.186;2023-02-15T08:44:12;-1.70;92.20
27567;DHT22;15006;48.584;9.186;2023-02-15T08:46:42;-1.60;92.10
27567;DHT22;15006;48.584;9.186;2023-02-15T08:49:12;-1.40;92.20
27567;DHT22;15006;48.584;9.186;2023-02-15T08:51:40;-1.30;92.10
27567;DHT22;15006;48.584;9.186;2023-02-15T08:54:09;-1.10;91.90
27567;DHT22;15006;48.584;9.186;2023-02-15T08:56:39;-1.00;91.90
27567;DHT22;15006;48.584;9.186;2023-02-15T08:59:18;-0.90;91.90
27567;DHT22;15006;48.584;9.186;2023-02-15T09:01:47;-0.80;92.20
27567;DHT22;15006;48.584;9.186;2023-02-15T09:04:15;-0.60;91.90
27567;DHT22;15006;48.584;9.186;2023-02-15T09:06:42;-0.40;91.80
27567;DHT22;15006;48.584;9.186;2023-02-15T09:09:10;-0.30;91.50
27567;DHT22;15006;48.584;9.186;2023-02-15T09:11:40;-0.20;91.20
27567;DHT22;15006;48.584;9.186;2023-02-15T09:14:12;0.00;91.20
27567;DHT22;15006;48.584;9.186;2023-02-15T09:16:41;0.20;91.50
27567;DHT22;15006;48.584;9.186;2023-02-15T09:19:15;0.40;91.30
27567;DHT22;15006;48.584;9.186;2023-02-15T09:21:42;0.50;90.70
27567;DHT22;15006;48.584;9.186;2023-02-15T09:24:10;0.70;90.30
27567;DHT22;15006;48.584;9.186;2023-02-15T09:26:40;0.80;90.00
27567;DHT22;15006;48.584;9.186;2023-02-15T09:29:07;0.90;89.50
27567;DHT22;15006;48.584;9.186;2023-02-15T09:31:38;1.00;88.90
27567;DHT22;15006;48.584;9.186;2023-02-15T09:34:06;1.10;88.20
27567;DHT22;15006;48.584;9.186;2023-02-15T09:36:34;1.20;87.70
27567;DHT22;15006;48.584;9.186;2023-02-15T09:39:12;1.30;86.80
27567;DHT22;15006;48.584;9.186;2023-02-15T09:44:53;1.50;85.70
27567;DHT22;15006;48.584;9.186;2023-02-15T09:51:14;1.70;81.80
27567;DHT22;15006;48.584;9.186;2023-02-15T10:05:37;2.50;80.50
27567;DHT22;15006;48.584;9.186;2023-02-15T10:11:19;2.90;81.00
27567;DHT22;15006;48.584;9.186;2023-02-15T10:20:54;3.30;79.00
27567;DHT22;15006;48.584;9.186;2023-02-15T10:26:46;3.60;76.40
27567;DHT22;15006;48.584;9.186;2023-02-15T10:32:27;3.90;74.40
27567;DHT22;15006;48.584;9.186;2023-02-15T10:35:12;4.10;74.10
27567;DHT22;15006;48.584;9.186;2023-02-15T10:41:03;4.50;71.40
27567;DHT22;15006;48.584;9.186;2023-02-15T10:43:58;4.70;72.00
27567;DHT22;15006;48.584;9.186;2023-02-15T11:01:32;6.20;70.30
27567;DHT22;15006;48.584;9.186;2023-02-15T11:09:49;8.50;72.00
27567;DHT22;15006;48.584;9.186;2023-02-15T11:12:22;9.40;69.90
27567;DHT22;15006;48.584;9.186;2023-02-15T11:15:19;10.20;67.10
27567;DHT22;15006;48.584;9.186;2023-02-15T11:17:56;11.00;59.60
27567;DHT22;15006;48.584;9.186;2023-02-15T11:20:42;11.80;58.10
27567;DHT22;15006;48.584;9.186;2023-02-15T11:23:14;12.40;54.60
27567;DHT22;15006;48.584;9.186;2023-02-15T11:26:09;13.00;57.50
27567;DHT22;15006;48.584;9.186;2023-02-15T11:28:45;13.60;56.70
27567;DHT22;15006;48.584;9.186;2023-02-15T11:31:20;14.40;54.90
27567;DHT22;15006;48.584;9.186;2023-02-15T11:34:01;15.00;53.70
27567;DHT22;15006;48.584;9.186;2023-02-15T11:36:38;15.70;51.90
27567;DHT22;15006;48.584;9.186;2023-02-15T11:39:11;16.40;51.30
27567;DHT22;15006;48.584;9.186;2023-02-15T11:42:09;17.00;50.40
27567;DHT22;15006;48.584;9.186;2023-02-15T11:47:44;18.30;46.60
27567;DHT22;15006;48.584;9.186;2023-02-15T11:50:22;18.90;47.70
27567;DHT22;15006;48.584;9.186;2023-02-15T11:53:01;19.40;43.50
27567;DHT22;15006;48.584;9.186;2023-02-15T11:55:30;19.80;42.70
27567;DHT22;15006;48.584;9.186;2023-02-15T12:01:09;20.60;38.70
27567;DHT22;15006;48.584;9.186;2023-02-15T12:07:03;21.30;39.40
27567;DHT22;15006;48.584;9.186;2023-02-15T12:10:31;21.60;37.00
27567;DHT22;15006;48.584;9.186;2023-02-15T12:12:43;22.00;35.90
27567;DHT22;15006;48.584;9.186;2023-02-15T12:15:11;22.30;36.10
27567;DHT22;15006;48.584;9.186;2023-02-15T12:17:52;22.50;35.60
27567;DHT22;15006;48.584;9.186;2023-02-15T12:23:14;23.00;34.60
27567;DHT22;15006;48.584;9.186;2023-02-15T12:25:42;23.30;33.90
27567;DHT22;15006;48.584;9.186;2023-02-15T12:28:29;23.70;33.90
27567;DHT22;15006;48.584;9.186;2023-02-15T12:30:59;24.00;31.90
27567;DHT22;15006;48.584;9.186;2023-02-15T12:33:31;24.20;32.70
27567;DHT22;15006;48.584;9.186;2023-02-15T12:36:09;24.50;31.60
27567;DHT22;15006;48.584;9.186;2023-02-15T12:38:37;24.70;31.20
27567;DHT22;15006;48.584;9.186;2023-02-15T12:41:24;25.00;31.50
27567;DHT22;15006;48.584;9.186;2023-02-15T12:49:35;25.30;30.30
27567;DHT22;15006;48.584;9.186;2023-02-15T12:54:48;25.40;29.20
27567;DHT22;15006;48.584;9.186;2023-02-15T13:00:02;25.60;28.50
27567;DHT22;15006;48.584;9.186;2023-02-15T13:02:47;25.70;29.00
27567;DHT22;15006;48.584;9.186;2023-02-15T13:13:31;26.00;28.00
27567;DHT22;15006;48.584;9.186;2023-02-15T13:16:05;26.00;27.60
27567;DHT22;15006;48.584;9.186;2023-02-15T13:18:44;26.00;28.00
27567;DHT22;15006;48.584;9.186;2023-02-15T13:21:20;26.00;27.70
27567;DHT22;15006;48.584;9.186;2023-02-15T13:23:51;26.00;27.80
27567;DHT22;15006;48.584;9.186;2023-02-15T13:26:25;26.10;27.40
27567;DHT22;15006;48.584;9.186;2023-02-15T13:28:55;26.10;27.70
27567;DHT22;15006;48.584;9.186;2023-02-15T13:31:24;26.00;27.80
27567;DHT22;15006;48.584;9.186;2023-02-15T13:34:15;26.00;28.40
27567;DHT22;15006;48.584;9.186;2023-02-15T13:39:48;26.00;27.40
27567;DHT22;15006;48.584;9.186;2023-02-15T14:11:29;26.00;27.30
27567;DHT22;15006;48.584;9.186;2023-02-15T14:14:22;26.00;27.00
27567;DHT22;15006;48.584;9.186;2023-02-15T14:17:19;26.10;29.60
27567;DHT22;15006;48.584;9.186;2023-02-15T14:25:27;26.10;26.40
27567;DHT22;15006;48.584;9.186;2023-02-15T14:31:34;26.00;26.40
27567;DHT22;15006;48.584;9.186;2023-02-15T14:34:04;26.00;26.80
27567;DHT22;15006;48.584;9.186;2023-02-15T14:36:30;25.90;26.70
27567;DHT22;15006;48.584;9.186;2023-02-15T14:39:17;25.80;26.70
27567;DHT22;15006;48.584;9.186;2023-02-15T14:42:24;25.70;26.40
27567;DHT22;15006;48.584;9.186;2023-02-15T14:45:20;25.60;26.70
27567;DHT22;15006;48.584;9.186;2023-02-15T14:48:19;25.50;26.70
27567;DHT22;15006;48.584;9.186;2023-02-15T14:50:50;25.50;27.00
27567;DHT22;15006;48.584;9.186;2023-02-15T14:53:35;25.40;26.60
27567;DHT22;15006;48.584;9.186;2023-02-15T15:01:33;25.20;26.60
27567;DHT22;15006;48.584;9.186;2023-02-15T15:04:10;25.20;26.30
27567;DHT22;15006;48.584;9.186;2023-02-15T15:06:41;25.10;26.10
27567;DHT22;15006;48.584;9.186;2023-02-15T15:09:23;25.10;26.20
27567;DHT22;15006;48.584;9.186;2023-02-15T15:11:53;25.10;25.90
27567;DHT22;15006;48.584;9.186;2023-02-15T15:14:49;25.10;26.00
27567;DHT22;15006;48.584;9.186;2023-02-15T15:25:56;25.00;25.50
27567;DHT22;15006;48.584;9.186;2023-02-15T15:43:24;24.60;25.60
27567;DHT22;15006;48.584;9.186;2023-02-15T15:48:47;23.90;25.10
27567;DHT22;15006;48.584;9.186;2023-02-15T15:51:30;23.30;25.20
27567;DHT22;15006;48.584;9.186;2023-02-15T15:54:01;22.60;25.30
27567;DHT22;15006;48.584;9.186;2023-02-15T15:56:32;22.00;25.30
27567;DHT22;15006;48.584;9.186;2023-02-15T15:59:02;21.30;25.60
27567;DHT22;15006;48.584;9.186;2023-02-15T16:01:37;20.60;26.00
27567;DHT22;15006;48.584;9.186;2023-02-15T16:04:12;20.00;26.60
27567;DHT22;15006;48.584;9.186;2023-02-15T16:06:40;19.40;27.10
27567;DHT22;15006;48.584;9.186;2023-02-15T16:09:20;18.80;27.50
27567;DHT22;15006;48.584;9.186;2023-02-15T16:11:48;18.20;28.00
27567;DHT22;15006;48.584;9.186;2023-02-15T16:14:32;17.60;28.40
27567;DHT22;15006;48.584;9.186;2023-02-15T16:17:04;17.00;29.00
27567;DHT22;15006;48.584;9.186;2023-02-15T16:19:35;16.40;29.70
27567;DHT22;15006;48.584;9.186;2023-02-15T16:22:14;15.70;30.00
27567;DHT22;15006;48.584;9.186;2023-02-15T16:25:00;15.10;30.70
27567;DHT22;15006;48.584;9.186;2023-02-15T16:27:39;14.50;31.60
27567;DHT22;15006;48.584;9.186;2023-02-15T16:35:31;12.70;34.20
27567;DHT22;15006;48.584;9.186;2023-02-15T16:37:57;12.10;34.40
27567;DHT22;15006;48.584;9.186;2023-02-15T16:43:26;11.10;35.90
27567;DHT22;15006;48.584;9.186;2023-02-15T16:46:05;10.50;38.00
27567;DHT22;15006;48.584;9.186;2023-02-15T16:48:34;10.00;38.00
27567;DHT22;15006;48.584;9.186;2023-02-15T16:51:05;9.60;38.50
27567;DHT22;15006;48.584;9.186;2023-02-15T16:53:32;9.10;39.10
27567;DHT22;15006;48.584;9.186;2023-02-15T16:56:00;8.70;40.00
27567;DHT22;15006;48.584;9.186;2023-02-15T16:58:38;8.40;41.50
27567;DHT22;15006;48.584;9.186;2023-02-15T17:01:09;7.90;42.40
27567;DHT22;15006;48.584;9.186;2023-02-15T17:03:37;7.60;42.40
27567;DHT22;15006;48.584;9.186;2023-02-15T17:06:24;7.30;42.90
27567;DHT22;15006;48.584;9.186;2023-02-15T17:08:52;6.90;44.90
27567;DHT22;15006;48.584;9.186;2023-02-15T17:11:37;6.70;44.50
27567;DHT22;15006;48.584;9.186;2023-02-15T17:16:45;6.20;46.00
27567;DHT22;15006;48.584;9.186;2023-02-15T17:19:28;5.90;47.40
27567;DHT22;15006;48.584;9.186;2023-02-15T17:22:02;5.70;47.40
27567;DHT22;15006;48.584;9.186;2023-02-15T17:24:43;5.40;47.70
27567;DHT22;15006;48.584;9.186;2023-02-15T17:27:25;5.20;50.00
27567;DHT22;15006;48.584;9.186;2023-02-15T17:29:56;5.00;50.50
27567;DHT22;15006;48.584;9.186;2023-02-15T17:32:29;4.90;50.10
27567;DHT22;15006;48.584;9.186;2023-02-15T17:35:04;4.70;50.70
27567;DHT22;15006;48.584;9.186;2023-02-15T17:40:22;4.40;51.80
27567;DHT22;15006;48.584;9.186;2023-02-15T17:42:53;4.20;53.80
27567;DHT22;15006;48.584;9.186;2023-02-15T17:45:22;4.10;52.70
27567;DHT22;15006;48.584;9.186;2023-02-15T17:47:50;4.00;53.60
27567;DHT22;15006;48.584;9.186;2023-02-15T17:50:22;3.90;53.70
27567;DHT22;15006;48.584;9.186;2023-02-15T17:52:51;3.80;54.40
27567;DHT22;15006;48.584;9.186;2023-02-15T17:55:20;3.70;54.20
27567;DHT22;15006;48.584;9.186;2023-02-15T17:58:15;3.60;55.30
27567;DHT22;15006;48.584;9.186;2023-02-15T18:00:57;3.60;55.10
27567;DHT22;15006;48.584;9.186;2023-02-15T18:03:47;3.50;56.30
27567;DHT22;15006;48.584;9.186;2023-02-15T18:06:34;3.50;54.90
27567;DHT22;15006;48.584;9.186;2023-02-15T18:09:21;3.50;54.60
27567;DHT22;15006;48.584;9.186;2023-02-15T18:14:56;3.40;55.70
27567;DHT22;15006;48.584;9.186;2023-02-15T18:17:31;3.30;54.30
27567;DHT22;15006;48.584;9.186;2023-02-15T18:20:23;3.30;54.60
27567;DHT22;15006;48.584;9.186;2023-02-15T18:22:58;3.20;54.80
27567;DHT22;15006;48.584;9.186;2023-02-15T18:25:27;3.10;54.20
27567;DHT22;15006;48.584;9.186;2023-02-15T18:27:53;3.00;54.70
27567;DHT22;15006;48.584;9.186;2023-02-15T18:30:21;2.90;54.80
27567;DHT22;15006;48.584;9.186;2023-02-15T18:32:51;2.80;55.30
27567;DHT22;15006;48.584;9.186;2023-02-15T18:35:23;2.70;55.50
27567;DHT22;15006;48.584;9.186;2023-02-15T18:37:52;2.60;55.60
27567;DHT22;15006;48.584;9.186;2023-02-15T18:40:21;2.50;55.90
27567;DHT22;15006;48.584;9.186;2023-02-15T18:42:49;2.30;56.30
27567;DHT22;15006;48.584;9.186;2023-02-15T18:45:18;2.20;56.50
27567;DHT22;15006;48.584;9.186;2023-02-15T18:47:46;2.10;56.90
27567;DHT22;15006;48.584;9.186;2023-02-15T18:50:14;1.90;56.90
27567;DHT22;15006;48.584;9.186;2023-02-15T18:52:42;1.80;57.30
27567;DHT22;15006;48.584;9.186;2023-02-15T18:55:21;1.70;57.80
27567;DHT22;15006;48.584;9.186;2023-02-15T18:57:53;1.50;58.90
27567;DHT22;15006;48.584;9.186;2023-02-15T19:02:53;1.40;58.70
27567;DHT22;15006;48.584;9.186;2023-02-15T19:05:20;1.30;59.00
27567;DHT22;15006;48.584;9.186;2023-02-15T19:07:47;1.20;59.10
27567;DHT22;15006;48.584;9.186;2023-02-15T19:10:23;1.20;59.50
27567;DHT22;15006;48.584;9.186;2023-02-15T19:12:50;1.10;59.90
27567;DHT22;15006;48.584;9.186;2023-02-15T19:15:23;1.10;59.70
27567;DHT22;15006;48.584;9.186;2023-02-15T19:17:53;1.00;60.00
27567;DHT22;15006;48.584;9.186;2023-02-15T19:20:22;1.00;59.60
27567;DHT22;15006;48.584;9.186;2023-02-15T19:22:57;0.90;59.60
27567;DHT22;15006;48.584;9.186;2023-02-15T19:25:27;0.80;59.50
27567;DHT22;15006;48.584;9.186;2023-02-15T19:27:54;0.80;59.60
27567;DHT22;15006;48.584;9.186;2023-02-15T19:30:31;0.70;59.90
27567;DHT22;15006;48.584;9.186;2023-02-15T19:32:58;0.60;61.40
27567;DHT22;15006;48.584;9.186;2023-02-15T19:35:27;0.60;60.60
27567;DHT22;15006;48.584;9.186;2023-02-15T19:37:57;0.50;61.00
27567;DHT22;15006;48.584;9.186;2023-02-15T19:40:28;0.50;61.10
27567;DHT22;15006;48.584;9.186;2023-02-15T19:42:57;0.40;60.90